sensor_id;sensor_type;location;lat;lon;timestamp;P1;durP1;ratioP1;P2;durP2;ratioP2
12480;SDS011;6305;48.398;11.762;2024-03-23T00:55:54;8.75;;;5.60;;
12480;SDS011;6305;48.398;11.762;2024-03-23T00:58:20;7.47;;;5.57;;
12480;SDS011;6305;48.398;11.762;2024-03-23T01:00:47;6.90;;;5.55;;
12480;SDS011;6305;48.398;11.762;2024-03-23T01:03:13;7.20;;;5.32;;
12480;SDS011;6305;48.398;11.762;2024-03-23T01:05:40;7.25;;;5.53;;
12480;SDS011;6305;48.398;11.762;2024-03-23T01:08:06;7.88;;;5.72;;
12480;SDS011;6305;48.398;11.762;2024-03-23T01:10:34;7.57;;;6.03;;
12480;SDS011;6305;48.398;11.762;2024-03-23T01:13:00;8.50;;;6.28;;
12480;SDS011;6305;48.398;11.762;2024-03-23T01:15:27;9.27;;;6.30;;
12480;SDS011;6305;48.398;11.762;2024-03-23T01:17:53;7.60;;;6.45;;
12480;SDS011;6305;48.398;11.762;2024-03-23T01:20:20;8.60;;;6.60;;
12480;SDS011;6305;48.398;11.762;2024-03-23T01:22:46;10.57;;;7.35;;
12480;SDS011;6305;48.398;11.762;2024-03-23T01:25:13;9.80;;;7.18;;
12480;SDS011;6305;48.398;11.762;2024-03-23T01:27:41;9.63;;;7.22;;
12480;SDS011;6305;48.398;11.762;2024-03-23T01:30:08;13.18;;;7.65;;
12480;SDS011;6305;48.398;11.762;2024-03-23T01:32:34;9.85;;;7.68;;
12480;SDS011;6305;48.398;11.762;2024-03-23T01:35:01;9.63;;;7.05;;
12480;SDS011;6305;48.398;11.762;2024-03-23T01:37:28;9.07;;;6.93;;
12480;SDS011;6305;48.398;11.762;2024-03-23T01:39:55;9.15;;;7.65;;
12480;SDS011;6305;48.398;11.762;2024-03-23T01:42:21;10.70;;;8.10;;
12480;SDS011;6305;48.398;11.762;2024-03-23T01:44:49;10.73;;;7.22;;
12480;SDS011;6305;48.398;11.762;2024-03-23T01:47:15;11.15;;;7.60;;
12480;SDS011;6305;48.398;11.762;2024-03-23T01:49:42;10.93;;;7.97;;
12480;SDS011;6305;48.398;11.762;2024-03-23T01:52:08;12.65;;;7.88;;
12480;SDS011;6305;48.398;11.762;2024-03-23T01:54:36;13.60;;;8.27;;
12480;SDS011;6305;48.398;11.762;2024-03-23T01:57:03;9.98;;;7.85;;
12480;SDS011;6305;48.398;11.762;2024-03-23T01:59:30;10.93;;;7.80;;
12480;SDS011;6305;48.398;11.762;2024-03-23T02:01:58;11.70;;;8.15;;
12480;SDS011;6305;48.398;11.762;2024-03-23T02:04:25;13.23;;;9.35;;
12480;SDS011;6305;48.398;11.762;2024-03-23T02:06:51;11.07;;;8.00;;
12480;SDS011;6305;48.398;11.762;2024-03-23T02:09:18;13.90;;;8.55;;
12480;SDS011;6305;48.398;11.762;2024-03-23T02:11:44;12.20;;;8.32;;
12480;SDS011;6305;48.398;11.762;2024-03-23T02:14:11;9.05;;;7.80;;
12480;SDS011;6305;48.398;11.762;2024-03-23T02:16:37;11.02;;;8.30;;
12480;SDS011;6305;48.398;11.762;2024-03-23T02:19:07;9.38;;;7.90;;
12480;SDS011;6305;48.398;11.762;2024-03-23T02:21:33;14.40;;;8.25;;
12480;SDS011;6305;48.398;11.762;2024-03-23T02:24:01;13.00;;;7.80;;
12480;SDS011;6305;48.398;11.762;2024-03-23T02:26:27;10.05;;;7.72;;
12480;SDS011;6305;48.398;11.762;2024-03-23T02:28:54;10.88;;;8.18;;
12480;SDS011;6305;48.398;11.762;2024-03-23T02:31:21;11.40;;;8.13;;
12480;SDS011;6305;48.398;11.762;2024-03-23T02:33:48;12.63;;;8.50;;
12480;SDS011;6305;48.398;11.762;2024-03-23T02:36:14;11.80;;;7.97;;
12480;SDS011;6305;48.398;11.762;2024-03-23T02:38:41;11.80;;;8.43;;
12480;SDS011;6305;48.398;11.762;2024-03-23T02:41:08;11.77;;;8.50;;
12480;SDS011;6305;48.398;11.762;2024-03-23T02:43:35;12.13;;;9.15;;
12480;SDS011;6305;48.398;11.762;2024-03-23T02:46:02;11.88;;;9.25;;
12480;SDS011;6305;48.398;11.762;2024-03-23T02:48:29;13.05;;;9.20;;
12480;SDS011;6305;48.398;11.762;2024-03-23T02:50:55;12.35;;;9.70;;
12480;SDS011;6305;48.398;11.762;2024-03-23T02:53:22;14.23;;;9.93;;
12480;SDS011;6305;48.398;11.762;2024-03-23T02:55:48;13.38;;;9.68;;
12480;SDS011;6305;48.398;11.762;2024-03-23T02:58:17;13.48;;;9.45;;
12480;SDS011;6305;48.398;11.762;2024-03-23T03:00:43;11.50;;;9.73;;
12480;SDS011;6305;48.398;11.762;2024-03-23T03:03:10;12.95;;;9.70;;
12480;SDS011;6305;48.398;11.762;2024-03-23T03:05:37;13.43;;;9.23;;
12480;SDS011;6305;48.398;11.762;2024-03-23T03:08:03;13.02;;;10.05;;
12480;SDS011;6305;48.398;11.762;2024-03-23T03:10:31;12.65;;;9.52;;
12480;SDS011;6305;48.398;11.762;2024-03-23T03:13:00;14.13;;;10.30;;
12480;SDS011;6305;48.398;11.762;2024-03-23T03:15:29;11.43;;;9.50;;
12480;SDS011;6305;48.398;11.762;2024-03-23T03:17:55;12.45;;;9.80;;
12480;SDS011;6305;48.398;11.762;2024-03-23T03:20:22;12.95;;;9.80;;
12480;SDS011;6305;48.398;11.762;2024-03-23T03:22:49;14.88;;;9.77;;
12480;SDS011;6305;48.398;11.762;2024-03-23T03:25:18;12.35;;;9.98;;
12480;SDS011;6305;48.398;11.762;2024-03-23T03:27:44;14.55;;;10.13;;
12480;SDS011;6305;48.398;11.762;2024-03-23T03:30:11;13.85;;;10.13;;
12480;SDS011;6305;48.398;11.762;2024-03-23T03:32:39;16.45;;;10.65;;
12480;SDS011;6305;48.398;11.762;2024-03-23T03:35:06;12.88;;;9.75;;
12480;SDS011;6305;48.398;11.762;2024-03-23T03:37:32;14.02;;;9.95;;
12480;SDS011;6305;48.398;11.762;2024-03-23T03:40:00;13.75;;;9.80;;
12480;SDS011;6305;48.398;11.762;2024-03-23T03:42:26;11.10;;;9.35;;
12480;SDS011;6305;48.398;11.762;2024-03-23T03:44:53;11.88;;;8.75;;
12480;SDS011;6305;48.398;11.762;2024-03-23T03:47:19;13.18;;;9.27;;
12480;SDS011;6305;48.398;11.762;2024-03-23T03:49:48;12.15;;;9.05;;
12480;SDS011;6305;48.398;11.762;2024-03-23T03:52:14;13.15;;;8.52;;
12480;SDS011;6305;48.398;11.762;2024-03-23T03:54:41;10.48;;;7.65;;
12480;SDS011;6305;48.398;11.762;2024-03-23T03:57:07;11.13;;;8.05;;
12480;SDS011;6305;48.398;11.762;2024-03-23T03:59:34;11.68;;;7.68;;
12480;SDS011;6305;48.398;11.762;2024-03-23T04:02:01;10.35;;;7.47;;
12480;SDS011;6305;48.398;11.762;2024-03-23T04:04:28;7.70;;;6.65;;
12480;SDS011;6305;48.398;11.762;2024-03-23T04:06:59;9.73;;;8.07;;
12480;SDS011;6305;48.398;11.762;2024-03-23T04:09:26;9.38;;;7.22;;
12480;SDS011;6305;48.398;11.762;2024-03-23T04:11:52;9.88;;;7.22;;
12480;SDS011;6305;48.398;11.762;2024-03-23T04:14:20;8.98;;;7.28;;
12480;SDS011;6305;48.398;11.762;2024-03-23T04:16:46;9.35;;;7.68;;
12480;SDS011;6305;48.398;11.762;2024-03-23T04:19:13;8.55;;;6.43;;
12480;SDS011;6305;48.398;11.762;2024-03-23T04:21:39;8.68;;;7.18;;
12480;SDS011;6305;48.398;11.762;2024-03-23T04:24:08;8.35;;;6.88;;
12480;SDS011;6305;48.398;11.762;2024-03-23T04:26:40;10.50;;;7.55;;
12480;SDS011;6305;48.398;11.762;2024-03-23T04:29:07;10.90;;;7.28;;
12480;SDS011;6305;48.398;11.762;2024-03-23T04:31:33;12.27;;;7.88;;
12480;SDS011;6305;48.398;11.762;2024-03-23T04:34:00;8.02;;;6.60;;
12480;SDS011;6305;48.398;11.762;2024-03-23T04:36:26;12.60;;;6.80;;
12480;SDS011;6305;48.398;11.762;2024-03-23T04:38:53;8.48;;;6.95;;
12480;SDS011;6305;48.398;11.762;2024-03-23T04:41:22;9.75;;;7.35;;
12480;SDS011;6305;48.398;11.762;2024-03-23T04:43:49;7.82;;;6.53;;
12480;SDS011;6305;48.398;11.762;2024-03-23T04:46:15;9.80;;;6.25;;
12480;SDS011;6305;48.398;11.762;2024-03-23T04:48:43;9.20;;;6.43;;
12480;SDS011;6305;48.398;11.762;2024-03-23T04:51:10;12.13;;;5.97;;
12480;SDS011;6305;48.398;11.762;2024-03-23T04:53:37;7.93;;;6.07;;
12480;SDS011;6305;48.398;11.762;2024-03-23T04:56:04;7.63;;;5.93;;
12480;SDS011;6305;48.398;11.762;2024-03-23T04:58:33;6.03;;;5.38;;
12480;SDS011;6305;48.398;11.762;2024-03-23T05:00:59;7.63;;;4.95;;
12480;SDS011;6305;48.398;11.762;2024-03-23T05:03:26;6.95;;;5.38;;
12480;SDS011;6305;48.398;11.762;2024-03-23T05:05:52;7.55;;;5.60;;
12480;SDS011;6305;48.398;11.762;2024-03-23T05:08:19;6.57;;;5.25;;
12480;SDS011;6305;48.398;11.762;2024-03-23T05:10:45;7.75;;;5.57;;
12480;SDS011;6305;48.398;11.762;2024-03-23T05:13:12;7.55;;;4.85;;
12480;SDS011;6305;48.398;11.762;2024-03-23T05:15:39;8.23;;;5.65;;
12480;SDS011;6305;48.398;11.762;2024-03-23T05:18:06;7.18;;;5.15;;
12480;SDS011;6305;48.398;11.762;2024-03-23T05:20:33;7.45;;;5.25;;
12480;SDS011;6305;48.398;11.762;2024-03-23T05:23:00;7.40;;;5.20;;
12480;SDS011;6305;48.398;11.762;2024-03-23T05:25:25;6.90;;;5.45;;
12480;SDS011;6305;48.398;11.762;2024-03-23T05:27:52;8.25;;;5.05;;
12480;SDS011;6305;48.398;11.762;2024-03-23T05:30:19;7.68;;;4.78;;
12480;SDS011;6305;48.398;11.762;2024-03-23T05:32:47;5.63;;;4.68;;
12480;SDS011;6305;48.398;11.762;2024-03-23T05:35:13;7.60;;;4.68;;
12480;SDS011;6305;48.398;11.762;2024-03-23T05:37:40;6.43;;;5.40;;
12480;SDS011;6305;48.398;11.762;2024-03-23T05:40:06;6.65;;;4.50;;
12480;SDS011;6305;48.398;11.762;2024-03-23T05:42:35;7.20;;;4.68;;
12480;SDS011;6305;48.398;11.762;2024-03-23T05:45:01;7.55;;;4.88;;
12480;SDS011;6305;48.398;11.762;2024-03-23T05:47:32;5.65;;;4.90;;
12480;SDS011;6305;48.398;11.762;2024-03-23T05:49:59;7.15;;;4.63;;
12480;SDS011;6305;48.398;11.762;2024-03-23T05:52:28;5.55;;;4.30;;
12480;SDS011;6305;48.398;11.762;2024-03-23T05:54:54;5.43;;;4.03;;
12480;SDS011;6305;48.398;11.762;2024-03-23T05:57:21;6.03;;;4.82;;
12480;SDS011;6305;48.398;11.762;2024-03-23T05:59:47;7.80;;;4.63;;
12480;SDS011;6305;48.398;11.762;2024-03-23T06:02:14;5.30;;;4.30;;
12480;SDS011;6305;48.398;11.762;2024-03-23T06:04:40;6.15;;;4.22;;
12480;SDS011;6305;48.398;11.762;2024-03-23T06:07:08;4.45;;;4.05;;
12480;SDS011;6305;48.398;11.762;2024-03-23T06:09:39;5.68;;;4.38;;
12480;SDS011;6305;48.398;11.762;2024-03-23T06:12:06;5.35;;;3.95;;
12480;SDS011;6305;48.398;11.762;2024-03-23T06:14:32;4.45;;;3.58;;
12480;SDS011;6305;48.398;11.762;2024-03-23T06:17:01;4.38;;;3.60;;
12480;SDS011;6305;48.398;11.762;2024-03-23T06:19:27;3.90;;;3.50;;
12480;SDS011;6305;48.398;11.762;2024-03-23T06:21:54;4.70;;;3.42;;
12480;SDS011;6305;48.398;11.762;2024-03-23T06:24:22;4.00;;;3.08;;
12480;SDS011;6305;48.398;11.762;2024-03-23T06:26:49;4.18;;;3.65;;
12480;SDS011;6305;48.398;11.762;2024-03-23T06:29:15;5.15;;;2.80;;
12480;SDS011;6305;48.398;11.762;2024-03-23T06:31:43;3.45;;;2.85;;
12480;SDS011;6305;48.398;11.762;2024-03-23T06:34:09;5.45;;;2.60;;
12480;SDS011;6305;48.398;11.762;2024-03-23T06:36:36;4.13;;;2.38;;
12480;SDS011;6305;48.398;11.762;2024-03-23T06:39:03;4.32;;;2.92;;
12480;SDS011;6305;48.398;11.762;2024-03-23T06:41:32;4.10;;;2.50;;
12480;SDS011;6305;48.398;11.762;2024-03-23T06:43:58;5.10;;;2.60;;
12480;SDS011;6305;48.398;11.762;2024-03-23T06:46:25;3.70;;;2.30;;
12480;SDS011;6305;48.398;11.762;2024-03-23T06:48:51;3.10;;;2.20;;
12480;SDS011;6305;48.398;11.762;2024-03-23T06:51:18;4.15;;;2.00;;
12480;SDS011;6305;48.398;11.762;2024-03-23T06:53:44;3.85;;;2.20;;
12480;SDS011;6305;48.398;11.762;2024-03-23T06:56:11;2.80;;;2.20;;
12480;SDS011;6305;48.398;11.762;2024-03-23T06:58:38;2.00;;;1.80;;
12480;SDS011;6305;48.398;11.762;2024-03-23T07:01:05;2.88;;;2.22;;
12480;SDS011;6305;48.398;11.762;2024-03-23T07:03:32;3.05;;;2.45;;
12480;SDS011;6305;48.398;11.762;2024-03-23T07:05:59;2.85;;;2.40;;
12480;SDS011;6305;48.398;11.762;2024-03-23T07:08:25;3.85;;;2.30;;
12480;SDS011;6305;48.398;11.762;2024-03-23T07:10:52;3.00;;;2.08;;
12480;SDS011;6305;48.398;11.762;2024-03-23T07:13:18;4.55;;;1.80;;
12480;SDS011;6305;48.398;11.762;2024-03-23T07:15:52;2.85;;;1.90;;
12480;SDS011;6305;48.398;11.762;2024-03-23T07:18:18;2.60;;;1.90;;
12480;SDS011;6305;48.398;11.762;2024-03-23T07:20:51;3.80;;;1.77;;
12480;SDS011;6305;48.398;11.762;2024-03-23T07:23:18;2.53;;;1.63;;
12480;SDS011;6305;48.398;11.762;2024-03-23T07:25:45;3.75;;;1.95;;
12480;SDS011;6305;48.398;11.762;2024-03-23T07:28:21;2.13;;;1.90;;
12480;SDS011;6305;48.398;11.762;2024-03-23T07:30:48;3.35;;;1.85;;
12480;SDS011;6305;48.398;11.762;2024-03-23T07:33:25;2.92;;;1.80;;
12480;SDS011;6305;48.398;11.762;2024-03-23T07:35:52;3.10;;;1.80;;
12480;SDS011;6305;48.398;11.762;2024-03-23T07:38:18;3.35;;;1.83;;
12480;SDS011;6305;48.398;11.762;2024-03-23T07:40:45;4.90;;;2.20;;
12480;SDS011;6305;48.398;11.762;2024-03-23T07:43:11;2.97;;;2.33;;
12480;SDS011;6305;48.398;11.762;2024-03-23T07:45:38;3.15;;;2.05;;
12480;SDS011;6305;48.398;11.762;2024-03-23T07:48:04;2.53;;;2.00;;
12480;SDS011;6305;48.398;11.762;2024-03-23T07:50:33;3.45;;;2.22;;
12480;SDS011;6305;48.398;11.762;2024-03-23T07:52:59;3.20;;;2.50;;
12480;SDS011;6305;48.398;11.762;2024-03-23T07:55:26;3.90;;;2.58;;
12480;SDS011;6305;48.398;11.762;2024-03-23T07:57:52;3.45;;;2.35;;
12480;SDS011;6305;48.398;11.762;2024-03-23T08:00:20;3.13;;;2.60;;
12480;SDS011;6305;48.398;11.762;2024-03-23T08:02:46;3.88;;;2.72;;
12480;SDS011;6305;48.398;11.762;2024-03-23T08:05:12;3.90;;;2.80;;
12480;SDS011;6305;48.398;11.762;2024-03-23T08:07:41;3.67;;;2.50;;
12480;SDS011;6305;48.398;11.762;2024-03-23T08:10:07;7.78;;;5.57;;
12480;SDS011;6305;48.398;11.762;2024-03-23T08:12:34;10.02;;;6.82;;
12480;SDS011;6305;48.398;11.762;2024-03-23T08:15:00;8.80;;;6.63;;
12480;SDS011;6305;48.398;11.762;2024-03-23T08:17:28;9.88;;;6.68;;
12480;SDS011;6305;48.398;11.762;2024-03-23T08:19:54;8.38;;;6.68;;
12480;SDS011;6305;48.398;11.762;2024-03-23T08:22:22;10.55;;;7.25;;
12480;SDS011;6305;48.398;11.762;2024-03-23T08:24:49;6.93;;;5.40;;
12480;SDS011;6305;48.398;11.762;2024-03-23T08:27:17;7.20;;;5.65;;
12480;SDS011;6305;48.398;11.762;2024-03-23T08:29:45;7.30;;;5.35;;
12480;SDS011;6305;48.398;11.762;2024-03-23T08:32:12;7.72;;;6.00;;
12480;SDS011;6305;48.398;11.762;2024-03-23T08:34:39;7.72;;;5.68;;
12480;SDS011;6305;48.398;11.762;2024-03-23T08:37:06;9.40;;;6.20;;
12480;SDS011;6305;48.398;11.762;2024-03-23T08:39:32;8.98;;;5.47;;
12480;SDS011;6305;48.398;11.762;2024-03-23T08:42:00;9.80;;;6.63;;
12480;SDS011;6305;48.398;11.762;2024-03-23T08:44:26;9.50;;;6.13;;
12480;SDS011;6305;48.398;11.762;2024-03-23T08:46:55;9.10;;;6.13;;
12480;SDS011;6305;48.398;11.762;2024-03-23T08:49:21;8.93;;;6.05;;
12480;SDS011;6305;48.398;11.762;2024-03-23T08:51:48;8.30;;;6.00;;
12480;SDS011;6305;48.398;11.762;2024-03-23T08:54:14;8.07;;;6.20;;
12480;SDS011;6305;48.398;11.762;2024-03-23T08:56:41;8.75;;;5.38;;
12480;SDS011;6305;48.398;11.762;2024-03-23T08:59:08;7.18;;;4.97;;
12480;SDS011;6305;48.398;11.762;2024-03-23T09:01:35;8.15;;;5.18;;
12480;SDS011;6305;48.398;11.762;2024-03-23T09:04:01;6.70;;;4.88;;
12480;SDS011;6305;48.398;11.762;2024-03-23T09:06:27;7.78;;;5.13;;
12480;SDS011;6305;48.398;11.762;2024-03-23T09:08:53;5.75;;;4.57;;
12480;SDS011;6305;48.398;11.762;2024-03-23T09:11:20;6.90;;;4.97;;
12480;SDS011;6305;48.398;11.762;2024-03-23T09:13:46;7.35;;;4.50;;
12480;SDS011;6305;48.398;11.762;2024-03-23T09:16:15;6.10;;;4.35;;
12480;SDS011;6305;48.398;11.762;2024-03-23T09:18:40;6.55;;;4.93;;
12480;SDS011;6305;48.398;11.762;2024-03-23T09:21:11;7.13;;;4.45;;
12480;SDS011;6305;48.398;11.762;2024-03-23T09:23:38;6.75;;;4.25;;
12480;SDS011;6305;48.398;11.762;2024-03-23T09:26:05;5.03;;;4.20;;
12480;SDS011;6305;48.398;11.762;2024-03-23T09:28:32;5.07;;;4.03;;
12480;SDS011;6305;48.398;11.762;2024-03-23T09:31:02;5.00;;;3.45;;
12480;SDS011;6305;48.398;11.762;2024-03-23T09:33:29;5.13;;;3.47;;
12480;SDS011;6305;48.398;11.762;2024-03-23T09:35:56;4.00;;;3.10;;
12480;SDS011;6305;48.398;11.762;2024-03-23T09:38:22;3.95;;;3.08;;
12480;SDS011;6305;48.398;11.762;2024-03-23T09:40:51;3.10;;;2.78;;
12480;SDS011;6305;48.398;11.762;2024-03-23T09:43:18;3.53;;;2.75;;
12480;SDS011;6305;48.398;11.762;2024-03-23T09:45:45;3.20;;;2.50;;
12480;SDS011;6305;48.398;11.762;2024-03-23T09:48:12;3.72;;;2.65;;
12480;SDS011;6305;48.398;11.762;2024-03-23T09:50:41;3.17;;;2.33;;
12480;SDS011;6305;48.398;11.762;2024-03-23T09:53:08;3.33;;;2.50;;
12480;SDS011;6305;48.398;11.762;2024-03-23T09:55:38;3.15;;;2.20;;
12480;SDS011;6305;48.398;11.762;2024-03-23T09:58:04;3.67;;;2.33;;
12480;SDS011;6305;48.398;11.762;2024-03-23T10:00:32;4.55;;;2.70;;
12480;SDS011;6305;48.398;11.762;2024-03-23T10:02:59;3.25;;;2.03;;
12480;SDS011;6305;48.398;11.762;2024-03-23T10:05:27;2.58;;;1.98;;
12480;SDS011;6305;48.398;11.762;2024-03-23T10:07:55;2.20;;;1.80;;
12480;SDS011;6305;48.398;11.762;2024-03-23T10:10:21;2.13;;;1.52;;
12480;SDS011;6305;48.398;11.762;2024-03-23T10:12:51;1.73;;;1.20;;
12480;SDS011;6305;48.398;11.762;2024-03-23T10:15:18;2.25;;;1.30;;
12480;SDS011;6305;48.398;11.762;2024-03-23T10:17:45;1.65;;;1.50;;
12480;SDS011;6305;48.398;11.762;2024-03-23T10:20:12;1.60;;;1.50;;
12480;SDS011;6305;48.398;11.762;2024-03-23T10:22:38;1.52;;;1.25;;
12480;SDS011;6305;48.398;11.762;2024-03-23T10:25:10;3.17;;;1.30;;
12480;SDS011;6305;48.398;11.762;2024-03-23T10:27:37;2.72;;;1.38;;
12480;SDS011;6305;48.398;11.762;2024-03-23T10:30:08;1.52;;;1.42;;
12480;SDS011;6305;48.398;11.762;2024-03-23T10:32:34;2.63;;;1.30;;
12480;SDS011;6305;48.398;11.762;2024-03-23T10:35:14;2.80;;;1.77;;
12480;SDS011;6305;48.398;11.762;2024-03-23T10:37:41;2.08;;;1.58;;
12480;SDS011;6305;48.398;11.762;2024-03-23T10:40:11;2.38;;;1.73;;
12480;SDS011;6305;48.398;11.762;2024-03-23T10:42:38;3.65;;;1.70;;
12480;SDS011;6305;48.398;11.762;2024-03-23T10:45:06;2.95;;;1.90;;
12480;SDS011;6305;48.398;11.762;2024-03-23T10:47:34;2.13;;;1.65;;
12480;SDS011;6305;48.398;11.762;2024-03-23T10:50:01;2.40;;;1.70;;
12480;SDS011;6305;48.398;11.762;2024-03-23T10:52:28;2.63;;;1.23;;
12480;SDS011;6305;48.398;11.762;2024-03-23T10:54:55;1.08;;;0.98;;
12480;SDS011;6305;48.398;11.762;2024-03-23T10:57:25;1.77;;;0.90;;
12480;SDS011;6305;48.398;11.762;2024-03-23T10:59:56;1.13;;;1.02;;
12480;SDS011;6305;48.398;11.762;2024-03-23T11:02:22;1.08;;;0.98;;
12480;SDS011;6305;48.398;11.762;2024-03-23T11:04:52;1.35;;;1.25;;
12480;SDS011;6305;48.398;11.762;2024-03-23T11:07:30;1.40;;;1.20;;
12480;SDS011;6305;48.398;11.762;2024-03-23T11:09:58;1.27;;;1.17;;
12480;SDS011;6305;48.398;11.762;2024-03-23T11:12:26;1.20;;;1.10;;
12480;SDS011;6305;48.398;11.762;2024-03-23T11:14:57;1.40;;;1.30;;
12480;SDS011;6305;48.398;11.762;2024-03-23T11:17:26;1.20;;;1.10;;
12480;SDS011;6305;48.398;11.762;2024-03-23T11:19:54;1.30;;;1.20;;
12480;SDS011;6305;48.398;11.762;2024-03-23T11:22:37;0.90;;;0.90;;
12480;SDS011;6305;48.398;11.762;2024-03-23T11:25:12;1.38;;;0.80;;
12480;SDS011;6305;48.398;11.762;2024-03-23T11:27:44;2.45;;;1.10;;
12480;SDS011;6305;48.398;11.762;2024-03-23T11:30:12;1.33;;;1.08;;
12480;SDS011;6305;48.398;11.762;2024-03-23T11:32:39;1.40;;;0.95;;
12480;SDS011;6305;48.398;11.762;2024-03-23T11:35:06;3.08;;;1.17;;
12480;SDS011;6305;48.398;11.762;2024-03-23T11:37:35;1.42;;;1.00;;
12480;SDS011;6305;48.398;11.762;2024-03-23T11:40:18;2.75;;;1.20;;
12480;SDS011;6305;48.398;11.762;2024-03-23T11:42:46;1.33;;;1.20;;
12480;SDS011;6305;48.398;11.762;2024-03-23T11:45:21;2.22;;;0.90;;
12480;SDS011;6305;48.398;11.762;2024-03-23T11:47:47;1.10;;;0.95;;
12480;SDS011;6305;48.398;11.762;2024-03-23T11:50:19;2.28;;;0.90;;
12480;SDS011;6305;48.398;11.762;2024-03-23T11:52:46;3.15;;;1.00;;
12480;SDS011;6305;48.398;11.762;2024-03-23T11:55:14;1.45;;;1.00;;
12480;SDS011;6305;48.398;11.762;2024-03-23T11:57:42;2.17;;;1.40;;
12480;SDS011;6305;48.398;11.762;2024-03-23T12:00:21;1.02;;;0.93;;
12480;SDS011;6305;48.398;11.762;2024-03-23T12:02:48;2.03;;;1.10;;
12480;SDS011;6305;48.398;11.762;2024-03-23T12:05:16;1.70;;;1.00;;
12480;SDS011;6305;48.398;11.762;2024-03-23T12:07:42;1.95;;;1.10;;
12480;SDS011;6305;48.398;11.762;2024-03-23T12:10:09;1.20;;;1.10;;
12480;SDS011;6305;48.398;11.762;2024-03-23T12:12:35;1.23;;;1.10;;
12480;SDS011;6305;48.398;11.762;2024-03-23T12:15:02;1.67;;;1.08;;
12480;SDS011;6305;48.398;11.762;2024-03-23T12:17:32;2.35;;;1.15;;
12480;SDS011;6305;48.398;11.762;2024-03-23T12:20:00;2.50;;;1.30;;
12480;SDS011;6305;48.398;11.762;2024-03-23T12:22:26;1.85;;;1.30;;
12480;SDS011;6305;48.398;11.762;2024-03-23T12:24:54;3.22;;;1.08;;
12480;SDS011;6305;48.398;11.762;2024-03-23T12:27:20;2.85;;;1.30;;
12480;SDS011;6305;48.398;11.762;2024-03-23T12:29:48;2.00;;;1.27;;
12480;SDS011;6305;48.398;11.762;2024-03-23T12:32:14;1.65;;;1.30;;
12480;SDS011;6305;48.398;11.762;2024-03-23T12:34:42;2.13;;;1.17;;
12480;SDS011;6305;48.398;11.762;2024-03-23T12:37:09;1.42;;;1.13;;
12480;SDS011;6305;48.398;11.762;2024-03-23T12:39:37;2.22;;;1.50;;
12480;SDS011;6305;48.398;11.762;2024-03-23T12:42:04;2.88;;;1.48;;
12480;SDS011;6305;48.398;11.762;2024-03-23T12:44:31;3.22;;;1.50;;
12480;SDS011;6305;48.398;11.762;2024-03-23T12:46:58;3.40;;;1.80;;
12480;SDS011;6305;48.398;11.762;2024-03-23T12:49:24;2.88;;;1.60;;
12480;SDS011;6305;48.398;11.762;2024-03-23T12:51:55;3.38;;;1.60;;
12480;SDS011;6305;48.398;11.762;2024-03-23T12:54:21;4.43;;;1.90;;
12480;SDS011;6305;48.398;11.762;2024-03-23T12:56:49;4.07;;;1.80;;
12480;SDS011;6305;48.398;11.762;2024-03-23T12:59:15;3.60;;;1.75;;
12480;SDS011;6305;48.398;11.762;2024-03-23T13:01:43;2.13;;;1.70;;
12480;SDS011;6305;48.398;11.762;2024-03-23T13:04:09;3.15;;;1.77;;
12480;SDS011;6305;48.398;11.762;2024-03-23T13:06:36;2.83;;;1.73;;
12480;SDS011;6305;48.398;11.762;2024-03-23T13:09:04;4.75;;;2.15;;
12480;SDS011;6305;48.398;11.762;2024-03-23T13:11:31;4.10;;;1.67;;
12480;SDS011;6305;48.398;11.762;2024-03-23T13:13:57;6.35;;;2.30;;
12480;SDS011;6305;48.398;11.762;2024-03-23T13:16:24;3.70;;;1.90;;
12480;SDS011;6305;48.398;11.762;2024-03-23T13:18:50;4.35;;;2.05;;
12480;SDS011;6305;48.398;11.762;2024-03-23T13:21:16;4.95;;;2.00;;
12480;SDS011;6305;48.398;11.762;2024-03-23T13:23:42;6.32;;;2.22;;
12480;SDS011;6305;48.398;11.762;2024-03-23T13:26:15;3.13;;;2.15;;
12480;SDS011;6305;48.398;11.762;2024-03-23T13:28:41;4.13;;;2.10;;
12480;SDS011;6305;48.398;11.762;2024-03-23T13:31:08;3.70;;;2.70;;
12480;SDS011;6305;48.398;11.762;2024-03-23T13:33:34;3.08;;;2.08;;
12480;SDS011;6305;48.398;11.762;2024-03-23T13:36:01;3.17;;;2.08;;
12480;SDS011;6305;48.398;11.762;2024-03-23T13:38:28;3.45;;;2.38;;
12480;SDS011;6305;48.398;11.762;2024-03-23T13:40:55;4.53;;;2.38;;
12480;SDS011;6305;48.398;11.762;2024-03-23T13:43:24;5.25;;;2.60;;
12480;SDS011;6305;48.398;11.762;2024-03-23T13:45:53;5.53;;;2.75;;
12480;SDS011;6305;48.398;11.762;2024-03-23T13:48:21;6.07;;;2.55;;
12480;SDS011;6305;48.398;11.762;2024-03-23T13:50:56;4.45;;;2.50;;
12480;SDS011;6305;48.398;11.762;2024-03-23T13:53:23;4.35;;;2.42;;
12480;SDS011;6305;48.398;11.762;2024-03-23T13:55:49;4.45;;;2.42;;
12480;SDS011;6305;48.398;11.762;2024-03-23T13:58:16;4.68;;;2.67;;
12480;SDS011;6305;48.398;11.762;2024-03-23T14:00:44;6.22;;;3.03;;
12480;SDS011;6305;48.398;11.762;2024-03-23T14:03:11;5.88;;;3.28;;
12480;SDS011;6305;48.398;11.762;2024-03-23T14:05:38;8.40;;;3.75;;
12480;SDS011;6305;48.398;11.762;2024-03-23T14:08:05;5.25;;;3.10;;
12480;SDS011;6305;48.398;11.762;2024-03-23T14:10:32;7.43;;;3.40;;
12480;SDS011;6305;48.398;11.762;2024-03-23T14:12:59;4.60;;;2.85;;
12480;SDS011;6305;48.398;11.762;2024-03-23T14:15:25;5.50;;;3.13;;
12480;SDS011;6305;48.398;11.762;2024-03-23T14:17:53;8.10;;;2.80;;
12480;SDS011;6305;48.398;11.762;2024-03-23T14:20:19;3.80;;;2.60;;
12480;SDS011;6305;48.398;11.762;2024-03-23T14:22:46;5.03;;;2.80;;
12480;SDS011;6305;48.398;11.762;2024-03-23T14:25:12;6.22;;;3.10;;
12480;SDS011;6305;48.398;11.762;2024-03-23T14:27:39;6.97;;;2.95;;
12480;SDS011;6305;48.398;11.762;2024-03-23T14:30:06;4.30;;;2.55;;
12480;SDS011;6305;48.398;11.762;2024-03-23T14:32:33;5.75;;;2.60;;
12480;SDS011;6305;48.398;11.762;2024-03-23T14:35:01;4.78;;;2.67;;
12480;SDS011;6305;48.398;11.762;2024-03-23T14:37:28;4.43;;;2.47;;
12480;SDS011;6305;48.398;11.762;2024-03-23T14:39:55;3.45;;;2.00;;
12480;SDS011;6305;48.398;11.762;2024-03-23T14:42:22;3.78;;;2.00;;
12480;SDS011;6305;48.398;11.762;2024-03-23T14:44:49;4.40;;;2.35;;
12480;SDS011;6305;48.398;11.762;2024-03-23T14:47:15;4.38;;;1.90;;
12480;SDS011;6305;48.398;11.762;2024-03-23T14:49:43;3.70;;;2.05;;
12480;SDS011;6305;48.398;11.762;2024-03-23T14:52:13;3.25;;;2.17;;
12480;SDS011;6305;48.398;11.762;2024-03-23T14:54:40;3.58;;;2.00;;
12480;SDS011;6305;48.398;11.762;2024-03-23T14:57:06;4.28;;;2.10;;
12480;SDS011;6305;48.398;11.762;2024-03-23T14:59:34;4.45;;;1.98;;
12480;SDS011;6305;48.398;11.762;2024-03-23T15:02:00;4.70;;;2.05;;
12480;SDS011;6305;48.398;11.762;2024-03-23T15:04:27;3.53;;;1.98;;
12480;SDS011;6305;48.398;11.762;2024-03-23T15:06:53;4.30;;;1.98;;
12480;SDS011;6305;48.398;11.762;2024-03-23T15:09:21;4.63;;;2.13;;
12480;SDS011;6305;48.398;11.762;2024-03-23T15:11:47;6.25;;;2.30;;
12480;SDS011;6305;48.398;11.762;2024-03-23T15:14:14;5.25;;;2.42;;
12480;SDS011;6305;48.398;11.762;2024-03-23T15:16:40;4.05;;;2.20;;
12480;SDS011;6305;48.398;11.762;2024-03-23T15:19:07;3.45;;;1.77;;
12480;SDS011;6305;48.398;11.762;2024-03-23T15:21:33;4.75;;;2.58;;
12480;SDS011;6305;48.398;11.762;2024-03-23T15:24:01;3.65;;;1.98;;
12480;SDS011;6305;48.398;11.762;2024-03-23T15:26:29;5.30;;;2.50;;
12480;SDS011;6305;48.398;11.762;2024-03-23T15:28:55;4.80;;;2.15;;
12480;SDS011;6305;48.398;11.762;2024-03-23T15:31:36;6.53;;;2.50;;
12480;SDS011;6305;48.398;11.762;2024-03-23T15:34:04;4.22;;;2.22;;
12480;SDS011;6305;48.398;11.762;2024-03-23T15:36:30;3.90;;;2.03;;
12480;SDS011;6305;48.398;11.762;2024-03-23T15:38:57;4.75;;;1.80;;
12480;SDS011;6305;48.398;11.762;2024-03-23T15:41:23;4.68;;;2.00;;